Time;durP1;ratioP1;P1;durP2;ratioP2;P2;SDS_P1;SDS_P2;PMS_P1;PMS_P2;Temp;Humidity;BMP_temperature;BMP_pressure;BME280_temperature;BME280_humidity;BME280_pressure;Samples;Min_cycle;Max_cycle;Signal;HPM_P1;HPM_P2
2022/12/24 00:01:40;;;;;;;33.53;8.70;;;;;;;9.00;100.00;100502.38;5035076;28;20377;-71
2022/12/24 00:04:06;;;;;;;28.90;7.38;;;;;;;8.96;100.00;100490.16;5035171;28;20060;-71
2022/12/24 00:06:31;;;;;;;32.08;7.97;;;;;;;8.94;100.00;100494.78;5051134;28;20028;-71
2022/12/24 00:08:57;;;;;;;34.20;8.93;;;;;;;8.94;100.00;100498.31;5051531;28;20036;-71
2022/12/24 00:11:22;;;;;;;28.40;9.18;;;;;;;8.94;100.00;100498.31;5032962;28;20048;-71
2022/12/24 00:13:48;;;;;;;38.67;9.23;;;;;;;8.95;100.00;100502.72;5048913;28;20119;-71
2022/12/24 00:16:13;;;;;;;34.63;8.13;;;;;;;8.97;100.00;100498.09;5037598;28;20051;-71
2022/12/24 00:18:38;;;;;;;27.00;8.18;;;;;;;8.95;100.00;100500.03;5040842;28;20168;-71
2022/12/24 00:21:05;;;;;;;34.58;9.55;;;;;;;8.95;100.00;100501.88;5042457;28;20029;-71
2022/12/24 00:23:31;;;;;;;39.35;8.70;;;;;;;8.94;100.00;100509.03;5043162;28;20029;-71
2022/12/24 00:25:56;;;;;;;31.48;7.75;;;;;;;8.95;100.00;100502.72;5046343;28;20026;-71
2022/12/24 00:28:21;;;;;;;34.08;7.57;;;;;;;8.98;100.00;100513.22;5043496;28;20074;-71
2022/12/24 00:30:46;;;;;;;35.13;8.93;;;;;;;8.99;100.00;100506.91;5047356;28;20025;-71
2022/12/24 00:33:12;;;;;;;34.28;8.02;;;;;;;9.00;100.00;100513.94;5042480;28;20041;-71
2022/12/24 00:35:39;;;;;;;36.08;9.45;;;;;;;8.99;100.00;100525.66;5033223;28;20053;-71
2022/12/24 00:38:04;;;;;;;29.98;7.55;;;;;;;8.98;100.00;100523.94;5044048;28;20036;-71
2022/12/24 00:40:30;;;;;;;31.27;8.60;;;;;;;9.00;100.00;100516.63;5036432;28;20362;-71
2022/12/24 00:42:56;;;;;;;29.33;9.02;;;;;;;9.00;100.00;100529.19;5034779;28;20171;-72
2022/12/24 00:45:21;;;;;;;32.67;7.95;;;;;;;8.99;100.00;100533.69;5045434;28;20140;-71
2022/12/24 00:47:47;;;;;;;27.08;7.20;;;;;;;8.98;100.00;100540.03;5041361;28;20112;-71
2022/12/24 00:50:12;;;;;;;30.90;8.48;;;;;;;8.96;100.00;100547.31;5042251;28;20025;-71
2022/12/24 00:52:37;;;;;;;41.10;8.25;;;;;;;8.96;100.00;100551.81;5052488;28;20016;-71
2022/12/24 00:55:03;;;;;;;33.38;7.57;;;;;;;8.96;100.00;100557.16;5044632;28;20443;-71
2022/12/24 00:57:28;;;;;;;34.17;8.80;;;;;;;8.94;100.00;100556.44;5053493;28;20029;-71
2022/12/24 00:59:54;;;;;;;35.72;7.78;;;;;;;8.92;100.00;100551.19;5042219;28;20104;-71
2022/12/24 01:02:19;;;;;;;31.52;8.73;;;;;;;8.92;100.00;100565.44;5050851;28;20412;-71
2022/12/24 01:07:28;;;;;;;29.10;9.02;;;;;;;8.90;100.00;100563.81;5046309;28;20090;-71
2022/12/24 01:09:54;;;;;;;33.28;8.73;;;;;;;8.89;100.00;100568.34;5053125;28;20025;-71
2022/12/24 01:12:19;;;;;;;26.40;7.97;;;;;;;8.90;100.00;100569.19;5040424;28;20124;-71
2022/12/24 01:14:45;;;;;;;27.33;8.57;;;;;;;8.88;100.00;100565.75;5033090;28;20025;-71
2022/12/24 01:17:10;;;;;;;31.10;7.43;;;;;;;8.85;100.00;100568.66;5031817;28;20084;-71
2022/12/24 01:19:35;;;;;;;34.90;8.50;;;;;;;8.83;100.00;100570.56;5033687;28;20039;-71
2022/12/24 01:22:01;;;;;;;25.00;8.07;;;;;;;8.81;100.00;100575.19;5033051;28;20029;-71
2022/12/24 01:24:26;;;;;;;33.70;9.35;;;;;;;8.79;100.00;100585.19;5037568;28;20060;-71
2022/12/24 01:26:51;;;;;;;26.88;7.15;;;;;;;8.76;100.00;100588.94;5052545;28;20025;-71
2022/12/24 01:29:16;;;;;;;32.17;8.07;;;;;;;8.72;100.00;100593.63;5044006;28;20034;-71
2022/12/24 01:31:42;;;;;;;26.58;8.07;;;;;;;8.69;100.00;100595.66;5045628;28;20120;-71
2022/12/24 01:34:07;;;;;;;31.48;8.07;;;;;;;8.66;100.00;100586.03;5037908;28;20104;-71
2022/12/24 01:36:32;;;;;;;28.35;8.02;;;;;;;8.66;100.00;100599.41;5038762;28;20032;-71
2022/12/24 01:38:58;;;;;;;29.15;7.65;;;;;;;8.64;100.00;100605.84;5041098;28;20059;-71
2022/12/24 01:44:25;;;;;;;29.02;8.27;;;;;;;8.60;100.00;100617.75;5045772;28;20047;-71
2022/12/24 01:46:55;;;;;;;30.52;8.70;;;;;;;8.56;100.00;100614.41;5044881;28;20092;-71
2022/12/24 01:49:21;;;;;;;32.53;8.98;;;;;;;8.57;100.00;100621.50;5040921;28;20056;-71
2022/12/24 01:51:57;;;;;;;32.15;7.80;;;;;;;8.58;100.00;100615.19;5037155;28;20037;-71
2022/12/24 01:54:29;;;;;;;35.30;7.93;;;;;;;8.59;100.00;100619.56;5036556;28;20386;-71
2022/12/24 01:56:59;;;;;;;28.58;8.30;;;;;;;8.62;100.00;100615.81;5049473;28;20017;-71
2022/12/24 01:59:25;;;;;;;31.58;8.43;;;;;;;8.63;100.00;100615.69;5047822;28;20025;-71
2022/12/24 02:01:52;;;;;;;29.83;7.47;;;;;;;8.62;100.00;100613.97;5054110;28;20071;-69
2022/12/24 02:04:17;;;;;;;29.48;7.57;;;;;;;8.63;100.00;100630.94;5061419;28;21295;-69
2022/12/24 02:06:42;;;;;;;30.85;7.35;;;;;;;8.63;100.00;100638.97;5043908;28;20036;-69
2022/12/24 02:09:08;;;;;;;36.55;9.57;;;;;;;8.63;100.00;100637.13;5038807;28;20037;-69
2022/12/24 02:11:36;;;;;;;37.88;9.07;;;;;;;8.64;100.00;100643.34;5049129;28;20028;-69
2022/12/24 02:14:01;;;;;;;32.67;7.93;;;;;;;8.65;100.00;100643.22;5059324;28;20029;-68
2022/12/24 02:16:53;;;;;;;29.17;8.05;;;;;;;8.66;100.00;100642.28;5057404;28;20047;-69
2022/12/24 02:19:50;;;;;;;34.67;8.30;;;;;;;8.71;100.00;100647.31;5036236;28;20040;-68
2022/12/24 02:22:39;;;;;;;28.50;7.95;;;;;;;8.72;100.00;100654.41;5039505;28;20469;-69
2022/12/24 02:25:36;;;;;;;30.40;9.05;;;;;;;8.75;100.00;100651.50;5040118;28;20029;-69
2022/12/24 02:28:06;;;;;;;26.65;8.95;;;;;;;8.77;100.00;100648.72;5025072;28;20061;-69
2022/12/24 02:30:42;;;;;;;38.65;7.88;;;;;;;8.80;100.00;100645.81;5039448;28;20139;-69
2022/12/24 02:33:25;;;;;;;40.05;8.85;;;;;;;8.81;100.00;100666.31;5039680;28;20108;-68
2022/12/24 02:36:18;;;;;;;28.65;7.80;;;;;;;8.84;100.00;100660.72;5039175;28;20444;-68
2022/12/24 02:38:56;;;;;;;34.88;7.65;;;;;;;8.85;100.00;100662.47;5051109;28;20036;-69
2022/12/24 02:44:26;;;;;;;26.60;7.45;;;;;;;8.86;100.00;100656.16;5039801;28;20071;-68
2022/12/24 02:46:52;;;;;;;41.03;8.02;;;;;;;8.88;100.00;100651.53;5042817;28;20048;-69
2022/12/24 02:49:17;;;;;;;29.17;8.95;;;;;;;8.88;100.00;100656.88;5055404;28;20033;-68
2022/12/24 02:51:43;;;;;;;31.88;6.85;;;;;;;8.88;100.00;100667.59;5046161;28;20041;-70
2022/12/24 02:54:08;;;;;;;31.55;7.03;;;;;;;8.88;100.00;100675.66;5039361;28;20025;-68
2022/12/24 02:56:40;;;;;;;31.08;6.68;;;;;;;8.88;100.00;100668.44;5038362;28;20029;-69
2022/12/24 02:59:21;;;;;;;33.80;6.97;;;;;;;8.89;100.00;100658.59;5055620;28;20029;-69
2022/12/24 03:02:05;;;;;;;27.73;8.10;;;;;;;8.89;100.00;100654.09;5049586;28;20079;-69
2022/12/24 03:04:51;;;;;;;27.05;7.25;;;;;;;8.89;100.00;100661.28;5057768;28;20029;-69
2022/12/24 03:07:31;;;;;;;31.50;7.28;;;;;;;8.90;100.00;100673.69;5041293;28;20025;-68
2022/12/24 03:10:06;;;;;;;30.50;7.05;;;;;;;8.91;100.00;100673.59;5040728;28;20030;-68
2022/12/24 03:12:45;;;;;;;32.97;7.40;;;;;;;8.93;100.00;100670.81;5045908;28;20033;-68
2022/12/24 03:15:14;;;;;;;33.85;6.95;;;;;;;8.93;100.00;100673.50;5051313;28;20055;-68
2022/12/24 03:17:42;;;;;;;33.60;7.82;;;;;;;8.93;100.00;100676.16;5046290;28;20048;-69
2022/12/24 03:20:10;;;;;;;25.50;6.63;;;;;;;8.95;100.00;100678.78;5050832;28;20028;-70
2022/12/24 03:22:36;;;;;;;28.92;7.57;;;;;;;8.97;100.00;100675.00;5040814;28;20110;-70
2022/12/24 03:25:02;;;;;;;35.90;7.22;;;;;;;8.98;100.00;100674.03;5041911;28;20028;-68
2022/12/24 03:27:31;;;;;;;32.22;7.93;;;;;;;9.00;100.00;100680.13;5045945;28;20033;-69
2022/12/24 03:29:57;;;;;;;29.15;7.47;;;;;;;9.01;100.00;100673.81;5045591;28;20025;-69
2022/12/24 03:32:26;;;;;;;25.90;7.40;;;;;;;9.03;100.00;100681.75;5050130;28;20035;-70
2022/12/24 03:34:52;;;;;;;30.10;7.75;;;;;;;9.04;100.00;100692.38;5049925;28;21841;-69
2022/12/24 03:37:17;;;;;;;34.45;7.45;;;;;;;9.05;100.00;100683.38;5049318;28;20031;-68
2022/12/24 03:39:42;;;;;;;24.85;7.63;;;;;;;9.07;100.00;100684.13;5046158;28;20055;-69
2022/12/24 03:42:07;;;;;;;28.42;7.68;;;;;;;9.09;100.00;100692.06;5045214;28;20038;-69
2022/12/24 03:44:33;;;;;;;22.98;6.70;;;;;;;9.10;100.00;100689.25;5048724;28;20037;-69
2022/12/24 03:46:58;;;;;;;28.77;7.22;;;;;;;9.12;100.00;100697.19;5046309;28;20092;-71
2022/12/24 03:49:23;;;;;;;31.70;7.53;;;;;;;9.13;100.00;100696.25;5039392;28;20033;-68
2022/12/24 03:51:48;;;;;;;30.92;7.65;;;;;;;9.14;100.00;100697.97;5047065;28;20052;-68
2022/12/24 03:54:14;;;;;;;28.92;6.85;;;;;;;9.15;100.00;100701.50;5049718;28;20439;-72
2022/12/24 03:56:39;;;;;;;24.08;7.05;;;;;;;9.15;100.00;100696.13;5046548;28;20021;-69
2022/12/24 03:59:04;;;;;;;30.25;7.68;;;;;;;9.15;100.00;100702.38;5047374;28;20039;-69
2022/12/24 04:01:30;;;;;;;32.08;7.38;;;;;;;9.15;100.00;100705.06;5039344;28;20021;-70
2022/12/24 04:03:55;;;;;;;32.17;7.03;;;;;;;9.15;100.00;100713.09;5048501;28;20025;-68
2022/12/24 04:06:20;;;;;;;26.73;6.63;;;;;;;9.16;100.00;100713.94;5049913;28;20670;-69
2022/12/24 04:08:46;;;;;;;23.95;6.93;;;;;;;9.14;100.00;100710.53;5042498;28;20029;-69
2022/12/24 04:11:14;;;;;;;32.08;7.88;;;;;;;9.14;100.00;100708.69;5045476;28;20480;-68
2022/12/24 04:13:39;;;;;;;24.88;6.53;;;;;;;9.15;100.00;100712.22;5045879;28;20587;-69
2022/12/24 04:16:12;;;;;;;27.90;6.05;;;;;;;9.17;100.00;100715.66;5044329;28;20091;-70
2022/12/24 04:18:38;;;;;;;26.05;7.47;;;;;;;9.14;100.00;100718.56;5035803;28;20036;-69
2022/12/24 04:21:05;;;;;;;28.88;7.15;;;;;;;9.15;100.00;100717.56;5044606;28;20033;-70
2022/12/24 04:23:32;;;;;;;27.65;6.55;;;;;;;9.14;100.00;100721.25;5044358;28;20029;-68
2022/12/24 04:25:59;;;;;;;27.58;7.32;;;;;;;9.14;100.00;100723.94;5042840;28;20021;-71
2022/12/24 04:28:24;;;;;;;33.20;9.10;;;;;;;9.14;100.00;100729.28;5046677;28;20029;-69
2022/12/24 04:30:50;;;;;;;33.03;9.38;;;;;;;9.14;100.00;100724.78;5059199;28;20088;-69
2022/12/24 04:33:15;;;;;;;28.98;8.60;;;;;;;9.14;100.00;100735.50;5050538;28;20037;-69
2022/12/24 04:35:41;;;;;;;27.73;6.80;;;;;;;9.15;100.00;100733.66;5040210;28;20496;-69
2022/12/24 04:38:08;;;;;;;28.95;8.68;;;;;;;9.14;100.00;100727.47;5044789;28;20551;-68
2022/12/24 04:40:33;;;;;;;31.30;7.63;;;;;;;9.13;100.00;100731.09;5058390;28;20025;-69
2022/12/24 04:42:58;;;;;;;29.05;7.28;;;;;;;9.13;100.00;100738.28;5054338;28;20055;-69
2022/12/24 04:45:23;;;;;;;32.17;7.50;;;;;;;9.10;100.00;100734.00;5050697;28;20030;-69
2022/12/24 04:47:49;;;;;;;31.95;8.18;;;;;;;9.08;100.00;100734.09;5041720;28;20117;-68
2022/12/24 04:50:14;;;;;;;27.42;7.15;;;;;;;9.05;100.00;100728.94;5040291;28;20389;-68
2022/12/24 04:52:39;;;;;;;26.55;6.85;;;;;;;9.02;100.00;100726.47;5041059;28;20025;-69
2022/12/24 04:55:05;;;;;;;32.38;6.85;;;;;;;9.00;100.00;100728.41;5059621;28;20100;-68
2022/12/24 04:57:32;;;;;;;25.73;5.93;;;;;;;8.99;100.00;100741.91;5058408;28;20092;-68
2022/12/24 04:59:58;;;;;;;30.38;6.60;;;;;;;8.99;100.00;100739.22;5060252;28;20048;-68
2022/12/24 05:02:23;;;;;;;26.83;6.28;;;;;;;9.00;100.00;100746.31;5058681;28;20021;-68
2022/12/24 05:04:48;;;;;;;26.88;6.55;;;;;;;9.02;100.00;100749.72;5057551;28;20747;-68
2022/12/24 05:07:13;;;;;;;26.55;7.03;;;;;;;9.01;100.00;100743.53;5056533;28;20036;-69
2022/12/24 05:09:39;;;;;;;24.52;5.78;;;;;;;9.03;100.00;100740.72;5041012;28;20021;-69
2022/12/24 05:12:04;;;;;;;38.53;7.68;;;;;;;9.03;100.00;100756.81;5041757;28;20087;-68
2022/12/24 05:14:30;;;;;;;25.83;6.05;;;;;;;9.04;100.00;100754.03;5040280;28;20049;-69
2022/12/24 05:16:55;;;;;;;31.70;7.50;;;;;;;9.03;100.00;100754.97;5043288;28;20028;-69
2022/12/24 05:19:20;;;;;;;31.85;6.53;;;;;;;9.04;100.00;100750.50;5042292;28;20108;-69
2022/12/24 05:26:20;;;;;;;33.45;7.57;;;;;;;9.04;100.00;100745.13;5046276;28;20092;-68
2022/12/24 05:27:15;;;;;;;27.60;7.15;;;;;;;9.03;100.00;100743.41;5054272;28;20039;-68
2022/12/24 05:29:40;;;;;;;25.33;6.57;;;;;;;9.03;100.00;100748.78;5039025;28;20037;-69
2022/12/24 05:32:05;;;;;;;28.40;6.75;;;;;;;9.02;100.00;100744.38;5054056;28;20028;-69
2022/12/24 05:34:30;;;;;;;26.23;7.07;;;;;;;8.99;100.00;100747.25;5043386;28;20043;-69
2022/12/24 05:36:56;;;;;;;26.77;6.65;;;;;;;8.97;100.00;100744.69;5050397;28;20029;-69
2022/12/24 05:39:21;;;;;;;26.45;6.50;;;;;;;8.96;100.00;100753.72;5053984;28;20088;-69
2022/12/24 05:41:46;;;;;;;27.27;7.43;;;;;;;8.95;100.00;100753.81;5056522;28;20056;-68
2022/12/24 05:44:13;;;;;;;29.27;7.90;;;;;;;8.93;100.00;100753.91;5040504;28;20025;-68
2022/12/24 05:46:38;;;;;;;28.40;7.25;;;;;;;8.88;100.00;100764.09;5043065;28;20037;-70
2022/12/24 05:49:03;;;;;;;23.52;5.78;;;;;;;8.87;100.00;100773.06;5056885;28;20085;-69
2022/12/24 05:51:29;;;;;;;26.48;7.22;;;;;;;8.86;100.00;100776.75;5056471;28;20033;-68
2022/12/24 05:53:54;;;;;;;29.60;6.65;;;;;;;8.87;100.00;100790.03;5052084;28;20024;-68
2022/12/24 05:56:22;;;;;;;24.30;5.75;;;;;;;8.88;100.00;100782.84;5053546;28;20025;-69
2022/12/24 05:58:48;;;;;;;30.67;7.30;;;;;;;8.90;100.00;100778.22;5048752;28;20040;-69
2022/12/24 06:01:14;;;;;;;27.15;6.88;;;;;;;8.88;100.00;100785.53;5041354;28;20030;-70
2022/12/24 06:03:40;;;;;;;27.80;7.38;;;;;;;8.87;100.00;100789.16;5045504;28;20335;-68
2022/12/24 06:06:12;;;;;;;27.00;8.02;;;;;;;8.87;100.00;100789.16;5049006;28;20037;-68
2022/12/24 06:08:39;;;;;;;24.42;7.28;;;;;;;8.87;100.00;100783.81;5048750;28;20063;-69
2022/12/24 06:11:07;;;;;;;32.85;6.70;;;;;;;8.87;100.00;100786.47;5056890;28;20392;-69
2022/12/24 06:13:33;;;;;;;28.75;8.57;;;;;;;8.86;100.00;100787.47;5050670;28;20021;-69
2022/12/24 06:15:59;;;;;;;29.42;8.20;;;;;;;8.83;100.00;100791.19;5057087;28;20031;-69
2022/12/24 06:18:27;;;;;;;31.13;8.38;;;;;;;8.83;100.00;100787.63;5054649;28;20021;-69
2022/12/24 06:20:54;;;;;;;25.15;7.28;;;;;;;8.83;100.00;100801.03;5038925;28;20116;-68
2022/12/24 06:23:20;;;;;;;34.58;8.10;;;;;;;8.80;100.00;100790.53;5040171;28;20163;-68
2022/12/24 06:25:45;;;;;;;29.73;8.05;;;;;;;8.78;100.00;100796.00;5047687;28;20037;-69
2022/12/24 06:28:11;;;;;;;37.80;8.82;;;;;;;8.75;100.00;100801.56;5048034;28;20025;-68
2022/12/24 06:30:36;;;;;;;34.42;8.88;;;;;;;8.70;100.00;100803.69;5045051;28;20067;-68
2022/12/24 06:33:01;;;;;;;27.83;7.35;;;;;;;8.67;100.00;100803.91;5059203;28;20387;-68
2022/12/24 06:35:27;;;;;;;34.72;8.63;;;;;;;8.64;100.00;100815.69;5053084;28;20029;-69
2022/12/24 06:37:52;;;;;;;34.47;8.50;;;;;;;8.62;100.00;100822.94;5038187;28;20078;-68
2022/12/24 06:40:17;;;;;;;23.75;7.10;;;;;;;8.59;100.00;100820.47;5040579;28;20033;-69
2022/12/24 06:42:43;;;;;;;28.00;7.60;;;;;;;8.56;100.00;100823.34;5044320;28;20045;-69
2022/12/24 06:45:08;;;;;;;41.58;7.88;;;;;;;8.55;100.00;100818.94;5045636;28;20036;-68
2022/12/24 06:47:33;;;;;;;29.60;7.85;;;;;;;8.52;100.00;100812.00;5047053;28;20028;-69
2022/12/24 06:49:59;;;;;;;30.05;8.05;;;;;;;8.55;100.00;100813.59;5054043;28;20033;-69
2022/12/24 06:52:24;;;;;;;35.20;8.70;;;;;;;8.57;100.00;100820.56;5039412;28;20108;-68
2022/12/24 06:54:49;;;;;;;30.08;9.20;;;;;;;8.60;100.00;100822.19;5048665;28;20033;-68
2022/12/24 06:57:14;;;;;;;30.85;7.80;;;;;;;8.63;100.00;100834.53;5047670;28;20041;-69
2022/12/24 06:59:40;;;;;;;29.33;8.55;;;;;;;8.65;100.00;100829.94;5043928;28;20384;-69
2022/12/24 07:02:05;;;;;;;29.85;7.82;;;;;;;8.63;100.00;100827.34;5057625;28;20037;-68
2022/12/24 07:04:31;;;;;;;33.55;7.57;;;;;;;8.62;100.00;100839.00;5056737;28;20128;-71
2022/12/24 07:06:56;;;;;;;33.95;8.27;;;;;;;8.58;100.00;100829.47;5052283;28;20032;-68
2022/12/24 07:09:21;;;;;;;33.08;9.18;;;;;;;8.53;100.00;100843.16;5063114;28;20434;-68
2022/12/24 07:11:46;;;;;;;25.42;7.95;;;;;;;8.50;100.00;100840.69;5059085;28;20044;-68
2022/12/24 07:14:12;;;;;;;34.95;7.90;;;;;;;8.48;100.00;100844.44;5044448;28;20396;-69
2022/12/24 07:16:37;;;;;;;31.27;8.57;;;;;;;8.45;100.00;100837.44;5052268;28;20044;-68
2022/12/24 07:19:02;;;;;;;36.38;8.63;;;;;;;8.45;100.00;100849.97;5044746;28;20036;-69
2022/12/24 07:21:27;;;;;;;28.13;6.93;;;;;;;8.43;100.00;100838.47;5044347;28;20032;-68
2022/12/24 07:23:53;;;;;;;33.40;8.80;;;;;;;8.43;100.00;100843.81;5062316;28;20028;-68
2022/12/24 07:26:18;;;;;;;33.28;7.78;;;;;;;8.42;100.00;100852.81;5060912;28;20036;-69
2022/12/24 07:28:43;;;;;;;34.58;8.70;;;;;;;8.40;100.00;100850.22;5047854;28;20156;-68
2022/12/24 07:31:09;;;;;;;28.00;8.00;;;;;;;8.40;100.00;100844.88;5050649;28;20033;-68
2022/12/24 07:33:34;;;;;;;35.75;8.38;;;;;;;8.38;100.00;100863.72;5056383;28;20021;-69
2022/12/24 07:36:09;;;;;;;26.13;8.20;;;;;;;8.39;100.00;100876.16;5056993;28;20101;-69
2022/12/24 07:38:34;;;;;;;34.78;9.07;;;;;;;8.38;100.00;100871.75;5049364;28;20035;-69
2022/12/24 07:41:00;;;;;;;33.50;8.60;;;;;;;8.38;100.00;100865.56;5055504;28;20024;-68
2022/12/24 07:43:26;;;;;;;32.03;8.50;;;;;;;8.36;100.00;100876.38;5045792;28;20032;-69
2022/12/24 07:45:56;;;;;;;29.20;6.68;;;;;;;8.36;100.00;100875.47;5044506;28;20040;-69
2022/12/24 07:48:21;;;;;;;29.27;7.38;;;;;;;8.35;100.00;100879.13;5039546;28;20068;-68
2022/12/24 07:50:48;;;;;;;30.30;6.90;;;;;;;8.32;100.00;100880.19;5044370;28;20021;-68
2022/12/24 07:53:14;;;;;;;30.48;7.82;;;;;;;8.32;100.00;100896.25;5046399;28;20041;-68
2022/12/24 07:55:39;;;;;;;24.88;7.25;;;;;;;8.31;100.00;100893.69;5052710;28;20071;-70
2022/12/24 07:58:04;;;;;;;29.00;7.00;;;;;;;8.32;100.00;100898.94;5046377;28;20034;-70
2022/12/24 08:00:30;;;;;;;36.35;8.30;;;;;;;8.35;100.00;100901.41;5047795;28;20024;-68
2022/12/24 08:02:55;;;;;;;33.00;7.63;;;;;;;8.39;100.00;100913.66;5037053;28;20112;-67
2022/12/24 08:05:20;;;;;;;27.05;7.45;;;;;;;8.43;100.00;100917.00;5035057;28;20048;-68
2022/12/24 08:07:46;;;;;;;29.45;7.03;;;;;;;8.45;100.00;100916.91;5041787;28;20112;-67
2022/12/24 08:10:11;;;;;;;31.23;8.75;;;;;;;8.47;100.00;100929.28;5038503;28;20396;-69
2022/12/24 08:12:36;;;;;;;32.60;7.30;;;;;;;8.47;100.00;100931.09;5043185;28;20116;-68
2022/12/24 08:15:02;;;;;;;26.48;7.72;;;;;;;8.46;100.00;100940.94;5053960;28;20032;-68
2022/12/24 08:17:27;;;;;;;30.23;6.97;;;;;;;8.46;100.00;100948.13;5044422;28;20162;-67
2022/12/24 08:19:52;;;;;;;28.95;7.10;;;;;;;8.44;100.00;100948.22;5054090;28;20025;-68
2022/12/24 08:22:17;;;;;;;26.02;7.22;;;;;;;8.46;100.00;100945.44;5044216;28;20021;-68
2022/12/24 08:24:43;;;;;;;30.85;8.80;;;;;;;8.46;100.00;100950.78;5041014;28;20061;-68
2022/12/24 08:27:08;;;;;;;31.42;7.40;;;;;;;8.47;100.00;100956.06;5046379;28;20488;-68
2022/12/24 08:29:33;;;;;;;33.08;6.78;;;;;;;8.50;100.00;100963.88;5043994;28;20076;-67
2022/12/24 08:31:59;;;;;;;31.70;7.65;;;;;;;8.52;100.00;100959.31;5038615;28;20036;-67
2022/12/24 08:34:24;;;;;;;29.63;7.63;;;;;;;8.57;100.00;100964.38;5041533;28;20123;-68
2022/12/24 08:36:49;;;;;;;33.85;7.90;;;;;;;8.57;100.00;100964.38;5044026;28;20492;-68
2022/12/24 08:39:14;;;;;;;29.05;6.90;;;;;;;8.57;100.00;100964.38;5044870;28;20017;-67
2022/12/24 08:41:40;;;;;;;27.08;7.65;;;;;;;8.59;100.00;100966.97;5050048;28;20052;-67
2022/12/24 08:44:05;;;;;;;33.38;8.60;;;;;;;8.60;100.00;100964.19;5046473;28;20113;-68
2022/12/24 08:46:30;;;;;;;34.20;7.95;;;;;;;8.62;100.00;100958.72;5042607;28;20036;-67
2022/12/24 08:48:56;;;;;;;31.13;7.90;;;;;;;8.62;100.00;100969.44;5054711;28;20039;-67
2022/12/24 08:51:21;;;;;;;29.27;7.90;;;;;;;8.63;100.00;100968.50;5039570;28;20033;-67
2022/12/24 08:53:46;;;;;;;36.65;9.10;;;;;;;8.64;100.00;100986.28;5047296;28;20029;-68
2022/12/24 08:56:12;;;;;;;32.83;8.48;;;;;;;8.63;100.00;100984.56;5056092;28;20028;-68
2022/12/24 08:58:38;;;;;;;29.58;7.97;;;;;;;8.63;100.00;100992.59;5056017;28;20028;-68
2022/12/24 09:01:15;;;;;;;30.20;7.68;;;;;;;8.63;100.00;100984.56;5048236;28;20033;-67
2022/12/24 09:03:40;;;;;;;28.35;7.57;;;;;;;8.61;100.00;100987.34;5051026;28;20040;-67
2022/12/24 09:06:07;;;;;;;27.02;7.40;;;;;;;8.59;100.00;100986.56;5055642;28;20025;-68
2022/12/24 09:08:33;;;;;;;32.55;8.15;;;;;;;8.57;100.00;100994.69;5046777;28;20037;-67
2022/12/24 09:11:10;;;;;;;33.90;9.38;;;;;;;8.60;100.00;101004.38;5051611;28;20028;-68
2022/12/24 09:13:37;;;;;;;35.78;8.65;;;;;;;8.60;100.00;101001.69;5047759;28;20473;-67
2022/12/24 09:16:02;;;;;;;32.13;8.20;;;;;;;8.61;100.00;101006.09;5042642;28;20032;-68
2022/12/24 09:18:28;;;;;;;34.67;8.63;;;;;;;8.65;100.00;101020.16;5040476;28;20409;-68
2022/12/24 09:21:06;;;;;;;34.60;9.75;;;;;;;8.67;100.00;101016.44;5051372;28;20488;-69
2022/12/24 09:23:33;;;;;;;32.08;8.00;;;;;;;8.69;100.00;101030.56;5034903;28;20144;-68
2022/12/24 09:25:59;;;;;;;35.80;8.32;;;;;;;8.71;100.00;101039.41;5044975;28;20116;-68
2022/12/24 09:28:24;;;;;;;30.75;8.63;;;;;;;8.77;100.00;101032.78;5049586;28;20110;-68
2022/12/24 09:30:58;;;;;;;29.23;7.65;;;;;;;8.83;100.00;101040.44;5040145;28;20039;-69
2022/12/24 09:33:23;;;;;;;31.08;7.90;;;;;;;8.91;100.00;101045.31;5047801;28;20025;-69
2022/12/24 09:35:52;;;;;;;33.05;7.72;;;;;;;8.94;100.00;101044.25;5052337;28;20379;-68
2022/12/24 09:38:19;;;;;;;30.53;7.57;;;;;;;8.93;100.00;101043.38;5062847;28;20032;-67
2022/12/24 09:40:45;;;;;;;29.67;7.53;;;;;;;8.95;100.00;101054.03;5057500;28;20483;-68
2022/12/24 09:43:16;;;;;;;31.67;8.18;;;;;;;8.95;100.00;101040.63;5056397;28;20056;-69
2022/12/24 09:45:54;;;;;;;34.47;8.80;;;;;;;8.97;100.00;101047.59;5054353;28;20094;-68
2022/12/24 09:48:23;;;;;;;37.03;7.95;;;;;;;8.99;100.00;101060.91;5038491;28;20036;-68
2022/12/24 09:50:53;;;;;;;34.42;8.98;;;;;;;9.00;100.00;101055.44;5034641;28;20108;-67
2022/12/24 09:53:26;;;;;;;26.55;8.35;;;;;;;9.01;100.00;101059.00;5071964;28;20476;-68
2022/12/24 09:55:56;;;;;;;27.52;8.57;;;;;;;8.99;100.00;101061.78;5048423;28;20035;-67
2022/12/24 09:58:44;;;;;;;42.05;8.95;;;;;;;8.99;100.00;101072.50;5034221;28;20060;-69
2022/12/24 10:01:12;;;;;;;33.85;9.23;;;;;;;8.98;100.00;101077.97;5043790;28;20100;-68
2022/12/24 10:03:38;;;;;;;28.73;8.45;;;;;;;8.97;100.00;101081.59;5047005;28;20388;-68
2022/12/24 10:06:13;;;;;;;30.25;8.43;;;;;;;8.98;100.00;101080.66;5033708;28;20025;-68
2022/12/24 10:09:03;;;;;;;42.13;9.20;;;;;;;8.99;100.00;101069.81;5049872;28;20033;-69
2022/12/24 10:11:59;;;;;;;39.85;9.38;;;;;;;8.99;100.00;101083.22;5053867;28;20059;-69
2022/12/24 10:14:46;;;;;;;33.45;8.93;;;;;;;9.02;100.00;101084.84;5034204;28;20027;-68
2022/12/24 10:17:27;;;;;;;34.13;8.35;;;;;;;9.02;100.00;101091.06;5034259;28;20029;-68
2022/12/24 10:20:17;;;;;;;38.10;9.52;;;;;;;9.04;100.00;101075.75;5034169;28;20409;-69
2022/12/24 10:23:06;;;;;;;30.15;8.35;;;;;;;9.08;100.00;101077.28;5053175;28;20029;-69
2022/12/24 10:25:31;;;;;;;31.70;9.45;;;;;;;9.12;100.00;101074.41;5053924;28;20039;-69
2022/12/24 10:28:01;;;;;;;27.35;7.68;;;;;;;9.14;100.00;101070.66;5052336;28;20041;-68
2022/12/24 10:30:27;;;;;;;38.83;10.80;;;;;;;9.15;100.00;101074.19;5041813;28;20032;-71
2022/12/24 10:32:54;;;;;;;28.05;7.90;;;;;;;9.15;100.00;101075.09;5042100;28;20093;-69
2022/12/24 10:35:26;;;;;;;36.65;9.63;;;;;;;9.15;100.00;101068.84;5049952;28;20366;-69
2022/12/24 10:37:52;;;;;;;29.75;8.60;;;;;;;9.15;100.00;101075.09;5051841;28;20558;-69
2022/12/24 10:40:31;;;;;;;36.75;8.65;;;;;;;9.16;100.00;101078.63;5045621;28;20040;-70
2022/12/24 10:42:56;;;;;;;36.28;9.82;;;;;;;9.16;100.00;101083.97;5038622;28;20053;-69
2022/12/24 10:45:26;;;;;;;36.08;8.30;;;;;;;9.16;100.00;101078.63;5047199;28;20040;-68
2022/12/24 10:47:58;;;;;;;30.17;9.45;;;;;;;9.16;100.00;101086.66;5051453;28;20029;-69
2022/12/24 10:50:32;;;;;;;35.60;9.27;;;;;;;9.16;100.00;101084.81;5046538;28;20090;-67
2022/12/24 10:53:05;;;;;;;32.05;8.40;;;;;;;9.19;100.00;101073.06;5056166;28;20024;-69
2022/12/24 10:55:31;;;;;;;30.95;9.48;;;;;;;9.24;100.00;101085.22;5059287;28;20033;-69
2022/12/24 10:58:18;;;;;;;31.25;8.35;;;;;;;9.30;100.00;101083.97;5045947;28;20033;-76
2022/12/24 11:00:51;;;;;;;26.50;8.32;;;;;;;9.36;100.00;101088.91;5054600;28;20465;-68
2022/12/24 11:03:16;;;;;;;29.25;7.85;;;;;;;9.40;100.00;101085.09;5053679;28;20463;-71
2022/12/24 11:05:41;;;;;;;28.95;8.57;;;;;;;9.44;100.00;101083.94;5050304;28;20049;-71
2022/12/24 11:08:18;;;;;;;29.67;6.82;;;;;;;9.49;100.00;101096.16;5049282;28;20056;-71
2022/12/24 11:10:57;;;;;;;30.88;8.05;;;;;;;9.51;100.00;101087.06;5048723;28;20059;-70
2022/12/24 11:13:27;;;;;;;31.27;9.70;;;;;;;9.53;100.00;101097.69;5060926;28;20014;-69
2022/12/24 11:16:09;;;;;;;23.88;7.70;;;;;;;9.56;100.00;101090.31;5071724;28;20040;-69
2022/12/24 11:18:37;;;;;;;26.17;7.88;;;;;;;9.60;100.00;101088.28;5058863;28;20025;-68
2022/12/24 11:21:04;;;;;;;33.00;9.23;;;;;;;9.63;100.00;101088.09;5060095;28;20034;-68
2022/12/24 11:23:29;;;;;;;32.40;8.52;;;;;;;9.66;100.00;101087.03;5065302;28;20031;-68
2022/12/24 11:25:57;;;;;;;31.00;8.35;;;;;;;9.70;100.00;101094.78;5054850;28;20084;-71
2022/12/24 11:28:32;;;;;;;32.70;8.30;;;;;;;9.74;100.00;101096.28;5068953;28;20044;-70
2022/12/24 11:31:01;;;;;;;32.70;9.02;;;;;;;9.78;100.00;101108.56;5063455;28;20024;-70
2022/12/24 11:33:30;;;;;;;34.65;10.23;;;;;;;9.81;100.00;101102.13;5065609;28;20886;-72